Flight Track Log - Related Links

Times and Time Zones

All times are in EDT time to prevent confusion due to time zone crossing. See the GJS3710 flight status page for this flight to view local times or setup timezone preferences in your user account.

Time Position Orientation Groundspeed Altitude Reporting Facility
EDT Latitude Longitude Course Direction KTS MPH feet Rate Location/Type
Wed 03:30:18 PM 29.9781 -90.2539 North 149 171 600  Level Houston Center
Wed 03:30:54 PM 29.9511 -90.2622 195° South 154 177 2,000 1,805 Climbing Houston Center
Wed 03:32:11 PM 29.9728 -90.3200 293° West 246 283 4,000 2,201 Climbing Houston Center
Wed 03:33:00 PM 30.3864 -90.4598 337° Northwest  Level FlightAware Approximate
Wed 03:33:13 PM 30.0481 -90.3344 351° North 265 305 7,100  Level Houston Center
Wed 03:34:00 PM 30.4932 -90.4500 North  Level FlightAware Approximate
Wed 03:34:15 PM 30.1453 -90.3461 354° North 283 326 10,100  Level Houston Center
Wed 03:35:00 PM 30.6040 -90.4421 North  Level FlightAware Approximate
Wed 03:35:17 PM 30.2333 -90.3578 353° North 303 349 11,700  Level Houston Center
Wed 03:36:19 PM 30.3325 -90.3653 356° North 337 388 12,900 1,248 Climbing Houston Center
Wed 03:37:22 PM 30.4408 -90.3825 352° North 374 430 14,300 1,344 Climbing Houston Center
Wed 03:38:24 PM 30.5533 -90.3989 353° North 399 459 15,700 1,403 Climbing Houston Center
Wed 03:39:26 PM 30.6711 -90.4119 355° North 415 478 17,200 1,355 Climbing Houston Center
Wed 03:40:28 PM 30.8133 -90.4311 353° North 425 489 18,500 1,065 Climbing Houston Center
Wed 03:41:30 PM 30.9394 -90.4372 358° North 445 512 19,400 919 Climbing Houston Center
Wed 03:42:32 PM 31.0678 -90.4292 North 462 532 20,400 1,161 Climbing Houston Center
Wed 03:43:34 PM 31.1967 -90.4203 North 462 532 21,800 1,258 Climbing Houston Center
Wed 03:44:36 PM 31.3242 -90.4128 North 459 528 23,000 960 Climbing Houston Center
Wed 03:45:39 PM 31.4531 -90.4047 North 461 531 23,800 720 Climbing Houston Center
Wed 03:46:41 PM 31.6100 -90.3947 North 469 540 24,500 677 Climbing Houston Center
Wed 03:47:43 PM 31.7442 -90.3867 North 481 554 25,200 677 Climbing Houston Center
Wed 03:48:45 PM 31.8794 -90.3783 North 485 558 25,900 706 Climbing Houston Center
Wed 03:49:08 PM 31.9392 -90.3719 North 475 547 26,200 723 Climbing Memphis Center
Wed 03:50:08 PM 32.0747 -90.3647 North 482 555 26,900 700 Climbing Memphis Center
Wed 03:51:08 PM 32.2106 -90.3572 North 482 555 27,600 850 Climbing Memphis Center
Wed 03:52:08 PM 32.3464 -90.3475 North 482 555 28,600 1,050 Climbing Memphis Center
Wed 03:53:08 PM 32.4800 -90.3400 North 477 549 29,700 1,150 Climbing Memphis Center
Wed 03:54:08 PM 32.6133 -90.3328 North 477 549 30,900 1,050 Climbing Memphis Center
Wed 03:55:08 PM 32.7450 -90.3253 North 477 549 31,800 850 Climbing Memphis Center
Wed 03:56:08 PM 32.8764 -90.3178 North 477 549 32,600 850 Climbing Memphis Center
Wed 03:57:08 PM 33.0100 -90.3103 North 477 549 33,500 850 Climbing Memphis Center
Wed 03:58:08 PM 33.1394 -90.3003 North 477 549 34,300 850 Climbing Memphis Center
Wed 03:59:08 PM 33.2711 -90.2928 North 477 549 35,200 950 Climbing Memphis Center
Wed 04:00:08 PM 33.4006 -90.2850 North 477 549 36,200 900 Climbing Memphis Center
Wed 04:01:08 PM 33.5256 -90.2675 North 465 535 37,000 400 Climbing Memphis Center
Wed 04:02:08 PM 33.6531 -90.2450 North 460 529 37,000  Level Memphis Center
Wed 04:03:08 PM 33.7864 -90.2197 North 466 536 37,000  Level Memphis Center
Wed 04:04:08 PM 33.9056 -90.1969 North 473 544 37,000  Level Memphis Center
Wed 04:05:08 PM 34.0389 -90.1717 North 478 550 37,000  Level Memphis Center
Wed 04:06:08 PM 34.1706 -90.1489 North 478 550 37,000  Level Memphis Center
Wed 04:07:08 PM 34.3039 -90.1208 10° North 483 556 37,000  Level Memphis Center
Wed 04:08:08 PM 34.4500 -90.0953 North 483 556 37,000  Level Memphis Center
Wed 04:09:08 PM 34.5814 -90.0719 North 483 556 37,000  Level Memphis Center
Wed 04:10:08 PM 34.7169 -90.0464 North 483 556 37,000  Level Memphis Center
Wed 04:11:08 PM 34.8503 -90.0231 North 483 556 37,000  Level Memphis Center
Wed 04:12:08 PM 34.9733 -89.9997 North 483 556 37,000  Level Memphis Center
Wed 04:13:08 PM 35.1069 -89.9942 North 483 556 37,000  Level Memphis Center
Wed 04:14:08 PM 35.2364 -90.0064 356° North 470 541 37,000  Level Memphis Center
Wed 04:15:08 PM 35.3656 -90.0158 357° North 470 541 37,000  Level Memphis Center
Wed 04:16:08 PM 35.4950 -90.0256 357° North 470 541 37,000  Level Memphis Center
Wed 04:17:08 PM 35.6369 -90.0403 355° North 465 535 37,000 150 Level Memphis Center
Wed 04:18:08 PM 35.7600 -90.0550 354° North 455 524 37,300 450 Climbing Memphis Center
Wed 04:19:08 PM 35.8892 -90.0675 356° North 455 524 37,900 350 Climbing Memphis Center
Wed 04:20:08 PM 36.0164 -90.0797 356° North 455 524 38,000 50 Climbing Memphis Center
Wed 04:21:08 PM 36.1436 -90.0947 355° North 460 529 38,000  Level Memphis Center
Wed 04:22:08 PM 36.2731 -90.1047 356° North 460 529 38,000  Level Memphis Center
Wed 04:23:08 PM 36.3878 -90.1172 355° North 460 529 38,000  Level Memphis Center
Wed 04:24:08 PM 36.5169 -90.1297 356° North 460 529 38,000  Level Memphis Center
Wed 04:25:08 PM 36.6442 -90.1397 356° North 460 529 38,000  Level Memphis Center
Wed 04:26:08 PM 36.7733 -90.1522 356° North 465 535 38,000  Level Memphis Center
Wed 04:28:02 PM 37.0272 -90.1736 356° North 461 531 38,000  Level Kansas City Center
Wed 04:29:04 PM 37.1558 -90.1847 356° North 461 531 38,000  Level Kansas City Center
Wed 04:30:06 PM 37.2847 -90.1975 355° North 462 532 38,000  Level Kansas City Center
Wed 04:31:08 PM 37.4111 -90.2583 339° North 447 514 38,000  Level Kansas City Center
Wed 04:32:10 PM 37.5358 -90.2875 349° North 452 520 38,000  Level Kansas City Center
Wed 04:33:12 PM 37.6642 -90.3044 354° North 461 531 38,000  Level Kansas City Center
Wed 04:34:14 PM 37.7911 -90.3233 353° North 461 531 38,000  Level Kansas City Center
Wed 04:35:16 PM 37.9172 -90.3406 354° North 458 527 38,000  Level Kansas City Center
Wed 04:36:18 PM 38.0425 -90.3594 353° North 454 522 38,000  Level Kansas City Center
Wed 04:37:20 PM 38.1942 -90.3833 353° North 456 525 38,000  Level Kansas City Center
Wed 04:38:22 PM 38.3183 -90.4017 353° North 452 520 38,000  Level Kansas City Center
Wed 04:39:24 PM 38.4306 -90.4175 354° North 450 518 38,000  Level Kansas City Center
Wed 04:40:26 PM 38.5772 -90.4406 353° North 445 512 38,000 -97 Level Kansas City Center
Wed 04:41:28 PM 38.7056 -90.4261 North 458 527 37,800 -629 Descending Kansas City Center
Wed 04:42:30 PM 38.8358 -90.3853 14° North 474 545 36,700 -1,016 Descending Kansas City Center
Wed 04:43:32 PM 38.9656 -90.3419 15° North 481 554 35,700 -968 Descending Kansas City Center
Wed 04:44:34 PM 39.0933 -90.2986 15° North 479 551 34,700 -968 Descending Kansas City Center
Wed 04:45:36 PM 39.2222 -90.2564 14° North 480 552 33,700 -823 Descending Kansas City Center
Wed 04:46:38 PM 39.3767 -90.2056 14° North 479 551 33,000 -339 Descending Kansas City Center
Wed 04:47:40 PM 39.5053 -90.1625 14° North 479 551 33,000  Level Kansas City Center
Wed 04:48:42 PM 39.6344 -90.1175 15° North 481 554 33,000  Level Kansas City Center
Wed 04:49:44 PM 39.7669 -90.0711 15° North 482 555 33,000  Level Kansas City Center
Wed 04:50:46 PM 39.8967 -90.0283 14° North 482 555 33,000  Level Kansas City Center
Wed 04:51:34 PM 39.9994 -89.9931 15° North 482 555 33,000  Level Chicago Center
Wed 04:52:36 PM 40.1303 -89.9475 15° North 485 558 33,000  Level Chicago Center
Wed 04:53:38 PM 40.2600 -89.9031 15° North 484 557 33,000 -194 Level Chicago Center
Wed 04:54:40 PM 40.4164 -89.8486 15° North 483 556 32,600 -768 Descending Chicago Center
Wed 04:55:43 PM 40.5369 -89.8058 15° North 478 550 31,400 -1,152 Descending Chicago Center
Wed 04:56:45 PM 40.6644 -89.7597 15° North 476 548 30,200 -1,161 Descending Chicago Center
Wed 04:57:47 PM 40.7911 -89.7164 15° North 473 544 29,000 -1,258 Descending Chicago Center
Wed 04:58:49 PM 40.9397 -89.6636 15° North 467 537 27,600 -1,258 Descending Chicago Center
Wed 04:59:51 PM 41.0647 -89.6208 14° North 469 540 26,400 -1,548 Descending Chicago Center
Wed 05:00:53 PM 41.1750 -89.5450 27° Northeast 456 525 24,400 -2,129 Descending Chicago Center
Wed 05:01:55 PM 41.2389 -89.3939 61° Northeast 470 541 22,000 -2,371 Descending Chicago Center
Wed 05:02:57 PM 41.3006 -89.2406 62° Northeast 470 541 19,500 -2,661 Descending Chicago Center
Wed 05:03:59 PM 41.3669 -89.0719 62° Northeast 436 502 16,500 -2,516 Descending Chicago Center
Wed 05:05:01 PM 41.4244 -88.9303 62° Northeast 438 504 14,300 -2,129 Descending Chicago Center
Wed 05:06:03 PM 41.4783 -88.7928 62° Northeast 423 487 12,100 -1,597 Descending Chicago Center
Wed 05:07:05 PM 41.5294 -88.6656 62° Northeast 390 449 11,000 -524 Descending Chicago Center
Wed 05:08:09 PM 41.5717 -88.5592 62° Northeast 331 381 11,000 -144 Level Chicago Center
Wed 05:09:10 PM 41.6097 -88.4533 64° Northeast 318 366 10,700 -1,122 Descending Chicago Center
Wed 05:10:12 PM 41.6497 -88.3267 67° East 309 356 8,700 -1,258 Descending Chicago Center
Wed 05:11:14 PM 41.6842 -88.2233 66° East 302 348 8,100 -823 Descending Chicago Center
Wed 05:12:16 PM 41.7419 -88.1511 43° Northeast 284 327 7,000 -1,355 Descending Chicago Center
Wed 05:13:18 PM 41.7994 -88.0811 42° Northeast 279 321 5,300 -1,694 Descending Chicago Center
Wed 05:14:20 PM 41.8542 -88.0197 40° Northeast 269 310 3,500 -1,742 Descending Chicago Center

Login

Don't have an account? Register now (free) for customized features, flight alerts, and more!